Time;durP1;ratioP1;P1;durP2;ratioP2;P2;SDS_P1;SDS_P2;PMS_P1;PMS_P2;Temp;Humidity;BMP_temperature;BMP_pressure;BME280_temperature;BME280_humidity;BME280_pressure;Samples;Min_cycle;Max_cycle;Signal;HPM_P1;HPM_P2
2023/05/16 00:00:40;;;;;;;10.48;2.60;;;12.20;99.90;;;;;;4970849;28;20068;-79
2023/05/16 00:03:06;;;;;;;8.07;2.28;;;12.40;99.90;;;;;;5027878;28;20045;-81
2023/05/16 00:05:32;;;;;;;13.88;2.53;;;12.10;99.90;;;;;;4970611;28;20456;-81
2023/05/16 00:07:57;;;;;;;10.15;1.95;;;12.20;99.90;;;;;;4971570;28;20092;-77
2023/05/16 00:10:23;;;;;;;13.57;2.70;;;12.10;99.90;;;;;;4986366;28;20051;-79
2023/05/16 00:12:50;;;;;;;13.38;2.47;;;12.30;99.90;;;;;;4953943;28;20074;-78
2023/05/16 00:15:19;;;;;;;10.80;2.58;;;12.20;99.90;;;;;;4982722;28;20519;-79
2023/05/16 00:17:46;;;;;;;12.02;3.17;;;11.30;99.90;;;;;;4987502;28;20084;-83
2023/05/16 00:20:16;;;;;;;12.30;2.78;;;12.20;99.90;;;;;;4996070;28;20479;-79
2023/05/16 00:22:42;;;;;;;6.80;2.25;;;12.20;99.90;;;;;;4984358;28;20137;-82
2023/05/16 00:25:08;;;;;;;10.10;2.35;;;12.20;99.90;;;;;;4968940;28;20137;-81
2023/05/16 00:27:35;;;;;;;8.70;2.15;;;12.10;99.90;;;;;;4970903;28;20084;-80
2023/05/16 00:30:01;;;;;;;8.57;2.50;;;12.20;99.90;;;;;;4967194;28;20057;-79
2023/05/16 00:32:27;;;;;;;16.70;2.72;;;12.40;99.90;;;;;;4989602;28;20050;-82
2023/05/16 00:34:53;;;;;;;15.48;2.90;;;12.20;99.90;;;;;;4968859;28;20618;-81
2023/05/16 00:37:18;;;;;;;10.30;2.80;;;12.20;99.90;;;;;;4971262;28;20034;-78
2023/05/16 00:39:44;;;;;;;12.45;2.30;;;12.20;99.90;;;;;;4986298;28;20436;-79
2023/05/16 00:42:10;;;;;;;12.85;2.25;;;12.20;99.90;;;;;;4971014;28;20038;-83
2023/05/16 00:44:36;;;;;;;10.50;2.85;;;12.10;99.90;;;;;;4968598;28;20035;-82
2023/05/16 00:47:02;;;;;;;8.90;2.05;;;12.20;99.90;;;;;;4968013;28;20722;-79
2023/05/16 00:49:29;;;;;;;11.60;2.20;;;11.90;99.90;;;;;;4973740;28;20120;-77
2023/05/16 00:51:56;;;;;;;9.00;2.80;;;11.90;99.90;;;;;;4973673;28;20053;-77
2023/05/16 00:54:24;;;;;;;10.32;2.05;;;12.00;99.90;;;;;;5050612;28;20570;-80
2023/05/16 00:56:51;;;;;;;5.90;1.63;;;11.80;99.90;;;;;;4973410;28;20057;-79
2023/05/16 00:59:18;;;;;;;8.35;2.03;;;11.80;99.90;;;;;;4989916;28;20041;-78
2023/05/16 01:01:46;;;;;;;8.32;1.70;;;11.80;99.90;;;;;;4969516;28;20121;-81
2023/05/16 01:04:12;;;;;;;9.00;2.33;;;11.80;99.90;;;;;;4971642;28;20035;-76
2023/05/16 01:06:38;;;;;;;11.98;1.85;;;11.80;99.90;;;;;;4986977;28;20038;-80
2023/05/16 01:09:06;;;;;;;8.15;2.05;;;11.80;99.90;;;;;;5001426;28;20038;-79
2023/05/16 01:12:07;;;;;;;12.00;2.03;;;11.60;99.90;;;;;;5014353;28;20045;-77
2023/05/16 01:14:48;;;;;;;7.90;1.92;;;11.70;99.90;;;;;;4961487;28;20052;-79
2023/05/16 01:17:17;;;;;;;13.57;2.42;;;11.60;99.90;;;;;;4989336;28;20049;-79
2023/05/16 01:19:58;;;;;;;13.20;2.30;;;11.80;99.90;;;;;;4988937;28;20049;-80
2023/05/16 01:22:46;;;;;;;10.48;2.17;;;11.70;99.90;;;;;;4973390;28;20050;-77
2023/05/16 01:25:44;;;;;;;14.32;2.38;;;11.70;99.90;;;;;;4985708;28;20642;-77
2023/05/16 01:28:12;;;;;;;10.43;1.92;;;11.70;99.90;;;;;;4996107;28;20546;-81
2023/05/16 01:30:40;;;;;;;9.65;1.95;;;11.70;99.90;;;;;;4989503;28;20045;-80
2023/05/16 01:33:06;;;;;;;10.13;2.20;;;11.60;99.90;;;;;;4999771;28;20050;-77
2023/05/16 01:35:34;;;;;;;11.93;2.22;;;11.50;99.90;;;;;;5065464;28;20077;-83
2023/05/16 01:38:15;;;;;;;8.85;1.90;;;11.50;99.90;;;;;;4971996;28;20050;-80
2023/05/16 01:41:03;;;;;;;11.73;2.40;;;11.40;99.90;;;;;;4972953;28;20108;-80
2023/05/16 01:43:45;;;;;;;10.95;1.52;;;11.50;99.90;;;;;;4987140;28;20618;-81
2023/05/16 01:46:20;;;;;;;8.43;2.95;;;11.50;99.90;;;;;;4989986;28;20473;-81
2023/05/16 01:49:02;;;;;;;8.98;2.22;;;11.60;99.90;;;;;;4989310;28;20143;-79
2023/05/16 01:51:32;;;;;;;10.30;2.17;;;11.60;99.90;;;;;;4973137;28;20159;-80
2023/05/16 01:54:04;;;;;;;10.52;2.85;;;11.70;99.90;;;;;;4989714;28;20044;-79
2023/05/16 01:56:31;;;;;;;8.05;2.92;;;11.70;99.90;;;;;;4973646;28;20042;-85
2023/05/16 01:58:58;;;;;;;11.45;2.60;;;11.70;99.90;;;;;;5020377;28;20072;-79
2023/05/16 02:01:24;;;;;;;7.95;2.20;;;11.70;99.90;;;;;;4981350;28;20076;-79
2023/05/16 02:03:50;;;;;;;9.48;2.55;;;11.60;99.90;;;;;;5055539;28;20421;-82
2023/05/16 02:06:16;;;;;;;7.22;1.77;;;11.70;99.90;;;;;;4997130;28;20053;-82
2023/05/16 02:08:42;;;;;;;9.60;2.15;;;11.60;99.90;;;;;;4988844;28;20048;-79
2023/05/16 02:11:07;;;;;;;7.68;2.08;;;11.80;99.90;;;;;;5012662;28;20405;-81
2023/05/16 02:13:33;;;;;;;10.70;1.92;;;11.60;99.90;;;;;;4953522;28;20386;-80
2023/05/16 02:15:59;;;;;;;9.90;2.25;;;11.70;99.90;;;;;;4940879;28;20117;-80
2023/05/16 02:18:27;;;;;;;13.02;1.90;;;11.70;99.90;;;;;;4971357;28;20045;-78
2023/05/16 02:20:52;;;;;;;9.63;1.90;;;11.60;99.90;;;;;;4997113;28;20050;-78
2023/05/16 02:23:18;;;;;;;11.63;2.15;;;11.60;99.90;;;;;;4992088;28;20045;-81
2023/05/16 02:25:44;;;;;;;8.30;2.25;;;11.50;99.90;;;;;;4970423;28;20046;-76
2023/05/16 02:28:09;;;;;;;12.15;2.47;;;11.50;99.90;;;;;;4956294;28;20401;-85
2023/05/16 02:30:35;;;;;;;7.72;1.80;;;11.50;99.90;;;;;;4972727;28;20090;-77
2023/05/16 02:33:01;;;;;;;11.15;2.08;;;11.50;99.90;;;;;;4980644;28;20060;-81
2023/05/16 02:35:26;;;;;;;6.25;2.08;;;11.40;99.90;;;;;;4968633;28;20042;-79
2023/05/16 02:37:52;;;;;;;10.85;2.53;;;11.40;99.90;;;;;;4959933;28;20050;-79
2023/05/16 02:40:18;;;;;;;18.08;2.58;;;11.50;99.90;;;;;;4972629;28;20108;-80
2023/05/16 02:42:43;;;;;;;9.68;2.17;;;11.40;99.90;;;;;;4971710;28;20079;-78
2023/05/16 02:45:09;;;;;;;8.48;2.38;;;11.50;99.90;;;;;;4955397;28;20049;-80
2023/05/16 02:47:35;;;;;;;12.63;2.50;;;11.30;99.90;;;;;;4974707;28;20064;-82
2023/05/16 02:50:02;;;;;;;10.10;2.10;;;11.40;99.90;;;;;;4975743;28;20034;-82
2023/05/16 02:52:28;;;;;;;13.02;2.50;;;11.40;99.90;;;;;;4938817;28;20162;-77
2023/05/16 02:54:56;;;;;;;8.50;2.10;;;11.40;99.90;;;;;;4978931;28;20087;-84
2023/05/16 02:57:22;;;;;;;8.43;2.25;;;11.40;99.90;;;;;;4984554;28;20049;-81
2023/05/16 02:59:48;;;;;;;10.55;2.65;;;11.30;99.90;;;;;;4991869;28;20053;-81
2023/05/16 03:02:13;;;;;;;9.38;2.72;;;11.50;99.90;;;;;;4961494;28;20088;-79
2023/05/16 03:04:39;;;;;;;10.95;2.30;;;11.40;99.90;;;;;;4994617;28;20053;-78
2023/05/16 03:07:05;;;;;;;14.20;2.97;;;11.20;99.90;;;;;;4959918;28;20052;-79
2023/05/16 03:09:30;;;;;;;12.07;2.30;;;11.30;99.90;;;;;;4944126;28;20046;-77
2023/05/16 03:11:56;;;;;;;9.07;2.50;;;11.40;99.90;;;;;;4973223;28;20056;-77
2023/05/16 03:14:22;;;;;;;10.68;2.40;;;11.30;99.90;;;;;;4994386;28;20740;-78
2023/05/16 03:16:47;;;;;;;6.80;2.28;;;11.60;99.90;;;;;;4956593;28;20407;-79
2023/05/16 03:19:13;;;;;;;8.82;2.40;;;11.20;99.90;;;;;;4990588;28;20071;-82
2023/05/16 03:21:39;;;;;;;10.75;2.00;;;11.30;99.90;;;;;;4958400;28;20049;-78
2023/05/16 03:24:05;;;;;;;9.98;2.20;;;11.40;99.90;;;;;;4989751;28;20052;-77
2023/05/16 03:26:30;;;;;;;7.90;2.03;;;11.20;99.90;;;;;;4952305;28;20125;-80
2023/05/16 03:28:56;;;;;;;9.30;2.25;;;11.30;99.90;;;;;;5017701;28;20099;-76
2023/05/16 03:31:22;;;;;;;8.43;2.63;;;11.20;99.90;;;;;;5012530;28;20042;-78
2023/05/16 03:33:48;;;;;;;11.25;2.22;;;11.20;99.90;;;;;;4973838;28;20106;-78
2023/05/16 03:36:13;;;;;;;9.60;2.03;;;11.20;99.90;;;;;;4971484;28;20701;-82
2023/05/16 03:38:39;;;;;;;7.55;2.63;;;11.20;99.90;;;;;;4956015;28;20037;-78
2023/05/16 03:41:05;;;;;;;11.93;2.28;;;11.40;99.90;;;;;;4997307;28;20034;-76
2023/05/16 03:43:30;;;;;;;12.88;2.95;;;11.50;99.90;;;;;;4973174;28;20125;-81
2023/05/16 03:45:56;;;;;;;9.43;2.05;;;11.50;99.90;;;;;;4982322;28;20034;-79
2023/05/16 03:48:22;;;;;;;8.45;1.98;;;11.30;99.90;;;;;;4976876;28;20053;-78
2023/05/16 03:50:48;;;;;;;10.30;2.20;;;11.30;99.90;;;;;;4989664;28;20128;-79
2023/05/16 03:53:13;;;;;;;8.10;2.30;;;11.50;99.90;;;;;;4998062;28;20042;-80
2023/05/16 03:55:39;;;;;;;7.47;2.20;;;11.40;99.90;;;;;;4972940;28;20052;-79
2023/05/16 03:58:05;;;;;;;10.48;1.85;;;11.40;99.90;;;;;;4970716;28;20439;-79
2023/05/16 04:00:30;;;;;;;8.63;2.13;;;11.50;99.90;;;;;;4988497;28;20034;-81
2023/05/16 04:02:56;;;;;;;8.43;2.20;;;11.60;99.90;;;;;;4954856;28;20075;-79
2023/05/16 04:05:22;;;;;;;10.15;1.85;;;11.40;99.90;;;;;;4972889;28;20049;-78
2023/05/16 04:07:47;;;;;;;11.20;2.13;;;11.60;99.90;;;;;;5040773;28;20034;-82
2023/05/16 04:10:13;;;;;;;13.18;2.83;;;11.50;99.90;;;;;;4972374;28;20439;-79
2023/05/16 04:12:39;;;;;;;10.15;2.20;;;11.40;99.90;;;;;;4957151;28;20042;-81
2023/05/16 04:15:05;;;;;;;6.55;1.90;;;11.50;99.90;;;;;;5056973;28;20038;-80
2023/05/16 04:17:32;;;;;;;13.20;2.58;;;11.50;99.90;;;;;;5012704;28;20509;-80
2023/05/16 04:19:58;;;;;;;11.70;2.55;;;11.60;99.90;;;;;;4996614;28;20037;-78
2023/05/16 04:22:24;;;;;;;11.32;2.17;;;11.60;99.90;;;;;;4995720;28;20106;-78
2023/05/16 04:24:50;;;;;;;7.20;2.03;;;11.50;99.90;;;;;;4986964;28;20042;-78
2023/05/16 04:27:16;;;;;;;12.20;2.22;;;11.50;99.90;;;;;;4982582;28;20062;-82
2023/05/16 04:29:42;;;;;;;6.63;2.05;;;11.60;99.90;;;;;;4971052;28;20037;-78
2023/05/16 04:32:08;;;;;;;10.98;2.20;;;11.50;99.90;;;;;;5013023;28;20039;-79
2023/05/16 04:34:36;;;;;;;6.75;2.35;;;11.50;99.90;;;;;;4985729;28;20042;-83
2023/05/16 04:37:04;;;;;;;14.75;2.17;;;11.50;99.90;;;;;;4969879;28;20565;-77
2023/05/16 04:39:30;;;;;;;5.75;1.90;;;11.40;99.90;;;;;;4991417;28;20084;-79
2023/05/16 04:41:58;;;;;;;8.43;1.90;;;11.60;99.90;;;;;;4997121;28;20103;-76
2023/05/16 04:44:25;;;;;;;9.07;2.33;;;11.60;99.90;;;;;;4973198;28;20967;-76
2023/05/16 04:46:52;;;;;;;11.90;3.17;;;11.50;99.90;;;;;;4956291;28;20044;-81
2023/05/16 04:49:21;;;;;;;9.20;2.67;;;11.80;99.90;;;;;;5012768;28;20046;-76
2023/05/16 04:51:47;;;;;;;10.15;2.17;;;11.90;99.90;;;;;;4985096;28;20038;-77
2023/05/16 04:54:13;;;;;;;10.10;2.17;;;11.90;99.90;;;;;;4983769;28;20110;-77
2023/05/16 04:56:39;;;;;;;8.27;1.83;;;12.10;99.90;;;;;;4990380;28;20479;-78
2023/05/16 04:59:05;;;;;;;6.47;2.17;;;11.80;99.90;;;;;;5020631;28;20042;-77
2023/05/16 05:01:30;;;;;;;8.15;1.77;;;12.10;99.90;;;;;;4966884;28;20482;-78
2023/05/16 05:03:56;;;;;;;7.53;1.90;;;12.00;99.90;;;;;;4995954;28;20046;-78
2023/05/16 05:06:22;;;;;;;6.93;1.85;;;12.10;99.90;;;;;;4997307;28;20067;-79
2023/05/16 05:08:48;;;;;;;7.88;2.30;;;12.10;99.90;;;;;;4953949;28;20034;-78
2023/05/16 05:11:13;;;;;;;9.88;2.05;;;12.30;99.90;;;;;;4994423;28;20982;-78
2023/05/16 05:13:39;;;;;;;10.73;2.45;;;12.30;99.90;;;;;;4955757;28;20041;-78
2023/05/16 05:16:05;;;;;;;13.20;2.00;;;12.20;99.90;;;;;;4987711;28;20045;-81
2023/05/16 05:18:31;;;;;;;11.68;2.42;;;12.30;99.90;;;;;;4955856;28;20046;-80
2023/05/16 05:20:57;;;;;;;8.70;2.45;;;12.50;99.90;;;;;;4953142;28;20091;-79
2023/05/16 05:23:25;;;;;;;6.55;1.60;;;12.80;99.90;;;;;;4969499;28;20060;-81
2023/05/16 05:25:51;;;;;;;7.03;2.22;;;12.60;99.90;;;;;;4988430;28;20037;-73
2023/05/16 05:28:17;;;;;;;8.20;2.47;;;12.80;99.90;;;;;;4968176;28;20620;-74
2023/05/16 05:30:43;;;;;;;9.70;1.98;;;12.70;99.90;;;;;;5031170;28;20034;-82
2023/05/16 05:33:10;;;;;;;9.60;2.05;;;12.70;99.90;;;;;;4996309;28;20064;-77
2023/05/16 05:35:36;;;;;;;6.40;1.90;;;12.70;99.90;;;;;;4989341;28;20053;-74
2023/05/16 05:38:03;;;;;;;11.45;1.80;;;12.50;99.90;;;;;;4971812;28;20045;-72
2023/05/16 05:40:29;;;;;;;9.75;1.73;;;12.60;99.90;;;;;;4969910;28;20091;-74
2023/05/16 05:43:00;;;;;;;8.50;1.95;;;12.80;99.90;;;;;;4968557;28;20114;-77
2023/05/16 05:45:29;;;;;;;9.48;2.55;;;13.20;99.90;;;;;;4983159;28;20045;-75
2023/05/16 05:47:58;;;;;;;9.98;1.77;;;13.30;99.90;;;;;;4982842;28;20186;-76
2023/05/16 05:50:26;;;;;;;6.68;2.13;;;13.40;99.90;;;;;;4957929;28;20111;-77
2023/05/16 05:52:51;;;;;;;9.43;1.75;;;13.50;99.90;;;;;;4945194;28;20038;-75
2023/05/16 05:55:17;;;;;;;10.48;2.03;;;13.50;99.90;;;;;;4957658;28;20042;-74
2023/05/16 05:57:43;;;;;;;12.85;2.58;;;13.50;99.90;;;;;;4976238;28;20133;-73
2023/05/16 06:00:10;;;;;;;9.75;2.17;;;13.70;99.90;;;;;;4954992;28;20124;-74
2023/05/16 06:02:36;;;;;;;7.82;1.63;;;13.80;99.90;;;;;;4951926;28;20037;-79
2023/05/16 06:05:04;;;;;;;6.10;2.00;;;13.80;99.90;;;;;;4987543;28;20053;-75
2023/05/16 06:07:30;;;;;;;5.28;1.40;;;13.90;99.90;;;;;;4985193;28;20046;-79
2023/05/16 06:09:56;;;;;;;5.70;1.33;;;13.90;99.90;;;;;;4970827;28;20036;-77
2023/05/16 06:12:21;;;;;;;8.25;1.50;;;13.90;99.90;;;;;;4981087;28;20747;-76
2023/05/16 06:14:47;;;;;;;8.88;1.60;;;14.20;99.90;;;;;;4939631;28;20469;-75
2023/05/16 06:17:13;;;;;;;7.40;1.50;;;14.30;99.90;;;;;;4987840;28;20042;-77
2023/05/16 06:19:39;;;;;;;9.20;2.03;;;14.20;99.90;;;;;;4951868;28;20143;-75
2023/05/16 06:22:05;;;;;;;7.03;1.98;;;14.30;99.90;;;;;;4984968;28;20037;-81
2023/05/16 06:24:31;;;;;;;10.43;2.20;;;14.30;99.90;;;;;;4971671;28;20052;-76
2023/05/16 06:26:56;;;;;;;4.95;1.45;;;14.30;99.90;;;;;;4954732;28;20050;-82
2023/05/16 06:29:22;;;;;;;8.80;1.40;;;14.30;99.90;;;;;;4988725;28;20078;-80
2023/05/16 06:31:48;;;;;;;5.32;1.30;;;14.30;99.90;;;;;;4971921;28;20061;-81
2023/05/16 06:34:14;;;;;;;7.97;1.35;;;14.40;99.90;;;;;;4937159;28;20061;-81
2023/05/16 06:36:40;;;;;;;6.18;1.63;;;14.60;99.90;;;;;;4966781;28;20046;-74
2023/05/16 06:39:06;;;;;;;7.75;1.50;;;14.70;99.90;;;;;;4998583;28;20034;-75
2023/05/16 06:41:31;;;;;;;3.97;1.08;;;14.70;99.90;;;;;;4984839;28;20302;-78
2023/05/16 06:43:57;;;;;;;4.63;1.35;;;14.50;99.90;;;;;;4970649;28;20038;-77
2023/05/16 06:46:23;;;;;;;8.90;1.65;;;14.20;99.90;;;;;;4971211;28;20132;-79
2023/05/16 06:48:49;;;;;;;5.15;1.77;;;14.50;99.90;;;;;;4987394;28;20128;-76
2023/05/16 06:51:15;;;;;;;7.53;1.63;;;14.50;99.90;;;;;;4936893;28;20066;-78
2023/05/16 06:53:40;;;;;;;10.15;1.75;;;14.40;99.90;;;;;;4976985;28;20607;-81
2023/05/16 06:56:07;;;;;;;3.88;1.27;;;14.50;99.90;;;;;;4935482;28;20128;-82
2023/05/16 06:58:33;;;;;;;8.75;1.80;;;14.70;99.90;;;;;;4984926;28;20042;-76
2023/05/16 07:00:59;;;;;;;5.63;1.75;;;15.00;99.90;;;;;;4971456;28;20041;-75
2023/05/16 07:03:25;;;;;;;5.75;1.35;;;15.10;99.90;;;;;;5004510;28;20045;-73
2023/05/16 07:05:51;;;;;;;1.88;1.00;;;14.60;99.90;;;;;;4967956;28;20038;-74
2023/05/16 07:08:17;;;;;;;4.68;1.33;;;14.30;99.90;;;;;;4982169;28;20045;-79
2023/05/16 07:10:43;;;;;;;4.40;1.40;;;14.60;99.90;;;;;;4952388;28;20386;-76
2023/05/16 07:13:09;;;;;;;5.63;1.55;;;14.60;99.90;;;;;;4970836;28;20030;-75
2023/05/16 07:15:35;;;;;;;9.60;1.60;;;14.80;99.90;;;;;;4993856;28;20069;-77
2023/05/16 07:18:01;;;;;;;5.20;1.13;;;14.90;99.90;;;;;;4990180;28;20455;-75
2023/05/16 07:20:27;;;;;;;9.30;1.58;;;15.10;99.90;;;;;;4963152;28;20034;-74
2023/05/16 07:22:52;;;;;;;4.80;1.25;;;15.30;99.90;;;;;;4968960;28;20050;-73
2023/05/16 07:25:18;;;;;;;10.13;1.60;;;15.30;99.90;;;;;;4977503;28;20110;-78
2023/05/16 07:27:44;;;;;;;4.28;1.50;;;15.30;99.90;;;;;;4971070;28;20046;-73
2023/05/16 07:30:11;;;;;;;7.55;1.40;;;15.30;99.90;;;;;;4969467;28;20049;-77
2023/05/16 07:32:37;;;;;;;4.13;1.45;;;15.40;99.90;;;;;;4987655;28;20093;-77
2023/05/16 07:35:03;;;;;;;11.18;1.50;;;15.50;99.90;;;;;;4974311;28;20514;-76
2023/05/16 07:37:29;;;;;;;5.88;2.28;;;15.20;99.90;;;;;;4958350;28;20041;-76
2023/05/16 07:39:55;;;;;;;6.70;1.30;;;14.90;99.90;;;;;;4986728;28;20441;-82
2023/05/16 07:42:21;;;;;;;8.95;1.90;;;14.70;99.90;;;;;;4973788;28;20125;-80
2023/05/16 07:44:47;;;;;;;5.50;1.95;;;15.00;99.90;;;;;;4971558;28;20041;-75
2023/05/16 07:47:12;;;;;;;6.28;1.83;;;15.20;99.90;;;;;;4951730;28;20038;-79
2023/05/16 07:49:38;;;;;;;3.45;1.40;;;15.00;99.90;;;;;;4987391;28;20418;-74
2023/05/16 07:52:04;;;;;;;7.40;1.42;;;14.70;99.90;;;;;;4958059;28;20038;-77
2023/05/16 07:54:32;;;;;;;4.60;1.27;;;15.20;99.90;;;;;;4991017;28;20052;-74
2023/05/16 07:56:58;;;;;;;4.85;1.90;;;15.40;99.90;;;;;;4987522;28;20042;-75
2023/05/16 07:59:24;;;;;;;9.65;1.60;;;15.40;99.90;;;;;;4973375;28;20046;-76
2023/05/16 08:01:50;;;;;;;4.47;1.17;;;15.20;99.90;;;;;;4988910;28;20044;-73
2023/05/16 08:04:17;;;;;;;6.47;1.33;;;15.00;99.90;;;;;;4971847;28;20042;-76
2023/05/16 08:06:42;;;;;;;8.00;1.55;;;15.20;99.90;;;;;;4946743;28;20042;-77
2023/05/16 08:09:08;;;;;;;13.45;1.98;;;15.80;99.90;;;;;;4988643;28;20036;-75
2023/05/16 08:11:35;;;;;;;6.88;2.22;;;15.90;99.90;;;;;;4957252;28;20398;-75
2023/05/16 08:14:03;;;;;;;7.97;1.80;;;15.50;99.90;;;;;;4957344;28;20050;-74
2023/05/16 08:16:30;;;;;;;4.43;1.05;;;15.10;99.90;;;;;;4983629;28;20075;-77
2023/05/16 08:18:55;;;;;;;7.35;2.05;;;15.00;99.90;;;;;;4985729;28;20134;-76
2023/05/16 08:21:26;;;;;;;4.00;1.10;;;15.10;99.90;;;;;;4963141;28;20124;-77
2023/05/16 08:23:55;;;;;;;5.38;1.25;;;15.40;99.90;;;;;;4952866;28;20050;-77
2023/05/16 08:26:21;;;;;;;8.07;1.75;;;15.80;99.90;;;;;;4954909;28;20046;-76
2023/05/16 08:28:47;;;;;;;7.35;1.60;;;16.30;99.90;;;;;;4951125;28;20513;-77
2023/05/16 08:31:12;;;;;;;7.32;1.92;;;16.10;99.90;;;;;;4957963;28;20049;-76
2023/05/16 08:33:38;;;;;;;2.97;1.17;;;15.40;99.90;;;;;;4980379;28;20038;-80
2023/05/16 08:36:09;;;;;;;4.78;1.00;;;14.80;99.90;;;;;;4970616;28;20398;-76
2023/05/16 08:38:35;;;;;;;5.53;1.67;;;15.20;99.90;;;;;;4978526;28;20053;-79
2023/05/16 08:41:02;;;;;;;5.15;1.42;;;15.30;99.90;;;;;;4948914;28;20041;-75
2023/05/16 08:43:28;;;;;;;6.53;1.60;;;15.80;99.90;;;;;;4974755;28;20046;-80
2023/05/16 08:45:53;;;;;;;4.28;1.13;;;16.00;99.90;;;;;;4974563;28;20042;-77
2023/05/16 08:48:22;;;;;;;4.55;1.20;;;16.20;99.90;;;;;;4977310;28;20044;-78
2023/05/16 08:50:48;;;;;;;6.43;1.20;;;16.40;99.90;;;;;;4976557;28;20469;-81
2023/05/16 08:53:30;;;;;;;7.93;1.83;;;16.60;99.90;;;;;;4953766;28;20034;-79
2023/05/16 08:55:57;;;;;;;5.60;1.73;;;16.30;99.90;;;;;;4971441;28;20462;-79
2023/05/16 08:58:23;;;;;;;7.03;1.50;;;16.00;99.90;;;;;;4987498;28;20046;-78
2023/05/16 09:00:49;;;;;;;9.30;1.65;;;16.10;99.90;;;;;;4977972;28;20056;-78
2023/05/16 09:03:19;;;;;;;6.63;1.65;;;15.70;99.90;;;;;;5001820;28;20378;-76
2023/05/16 09:05:46;;;;;;;11.23;2.38;;;15.60;99.90;;;;;;4956367;28;20049;-78
2023/05/16 09:08:12;;;;;;;8.43;1.65;;;15.30;99.90;;;;;;4996253;28;20038;-78
2023/05/16 09:10:40;;;;;;;6.05;1.73;;;15.00;99.90;;;;;;4958192;28;20504;-81
2023/05/16 09:13:06;;;;;;;9.02;1.52;;;15.70;99.90;;;;;;4973071;28;20038;-78
2023/05/16 09:15:33;;;;;;;5.50;1.50;;;16.50;99.90;;;;;;4988139;28;20046;-76
2023/05/16 09:18:12;;;;;;;8.93;2.40;;;16.80;99.90;;;;;;4986270;28;20034;-76
2023/05/16 09:20:48;;;;;;;3.05;1.30;;;16.20;99.90;;;;;;4992290;28;20134;-78
2023/05/16 09:23:15;;;;;;;4.25;1.17;;;15.10;99.90;;;;;;4981597;28;20038;-77
2023/05/16 09:25:41;;;;;;;7.32;1.35;;;14.30;99.90;;;;;;4973639;28;20080;-75
2023/05/16 09:28:11;;;;;;;5.20;1.20;;;14.10;99.90;;;;;;4971814;28;20066;-80
2023/05/16 09:30:38;;;;;;;7.18;1.63;;;15.00;99.90;;;;;;4973259;28;20048;-76
2023/05/16 09:33:06;;;;;;;9.10;1.75;;;15.60;99.90;;;;;;4975965;28;20042;-78
2023/05/16 09:35:35;;;;;;;6.85;1.65;;;16.50;99.90;;;;;;4991666;28;20095;-79
2023/05/16 09:38:05;;;;;;;6.93;2.08;;;15.70;99.90;;;;;;5004849;28;20050;-78
2023/05/16 09:40:30;;;;;;;6.70;1.55;;;15.20;99.90;;;;;;4955280;28;20401;-80
2023/05/16 09:43:07;;;;;;;4.75;1.17;;;15.00;99.90;;;;;;4974163;28;20037;-82
2023/05/16 09:45:46;;;;;;;4.38;1.38;;;14.30;99.90;;;;;;4967037;28;20050;-76
2023/05/16 09:48:14;;;;;;;7.18;1.92;;;14.70;99.90;;;;;;4971847;28;20049;-78
2023/05/16 09:50:45;;;;;;;4.40;1.27;;;15.40;99.90;;;;;;5014782;28;20054;-82
2023/05/16 09:53:12;;;;;;;6.13;1.70;;;15.90;99.90;;;;;;4973717;28;20037;-77
2023/05/16 09:55:38;;;;;;;4.57;1.30;;;16.50;99.90;;;;;;4956810;28;20034;-80
2023/05/16 09:58:04;;;;;;;7.10;1.38;;;16.90;99.90;;;;;;4939905;28;20410;-80
2023/05/16 10:00:31;;;;;;;5.07;1.65;;;16.80;99.90;;;;;;4973351;28;20049;-81
2023/05/16 10:02:58;;;;;;;6.70;1.75;;;16.20;99.90;;;;;;4997950;28;20038;-81
2023/05/16 10:05:26;;;;;;;7.03;1.40;;;15.90;99.90;;;;;;4983922;28;20041;-80
2023/05/16 10:08:01;;;;;;;8.02;1.70;;;16.30;99.90;;;;;;5017141;28;20108;-81
2023/05/16 10:10:28;;;;;;;7.75;2.28;;;15.70;99.90;;;;;;4973068;28;20077;-81
2023/05/16 10:12:57;;;;;;;8.63;1.52;;;15.70;99.90;;;;;;4956726;28;20095;-77
2023/05/16 10:15:23;;;;;;;5.32;1.42;;;15.70;99.90;;;;;;4971593;28;20052;-75
2023/05/16 10:17:52;;;;;;;5.00;1.60;;;16.50;99.90;;;;;;4972077;28;20121;-79
2023/05/16 10:20:20;;;;;;;9.05;1.60;;;17.00;99.90;;;;;;4971275;28;20375;-81
2023/05/16 10:22:47;;;;;;;4.97;1.30;;;16.40;99.90;;;;;;4969009;28;20045;-78
2023/05/16 10:25:32;;;;;;;4.72;1.20;;;16.70;99.90;;;;;;4975408;28;20038;-81
2023/05/16 10:27:59;;;;;;;3.92;0.90;;;15.10;99.90;;;;;;4994971;28;20046;-79
2023/05/16 10:30:26;;;;;;;2.17;0.80;;;14.00;99.90;;;;;;4951917;28;20082;-79
2023/05/16 10:32:52;;;;;;;1.40;0.60;;;13.20;99.90;;;;;;4953631;28;20042;-83
2023/05/16 10:35:20;;;;;;;3.38;0.85;;;13.00;99.90;;;;;;4944733;28;20038;-81
2023/05/16 10:37:48;;;;;;;3.85;1.05;;;13.30;99.90;;;;;;5005356;28;20137;-81
2023/05/16 10:40:18;;;;;;;5.07;0.90;;;13.40;99.90;;;;;;4984653;28;20464;-81
2023/05/16 10:43:01;;;;;;;4.90;1.05;;;14.40;99.90;;;;;;4953838;28;20050;-81
2023/05/16 10:45:27;;;;;;;2.97;0.90;;;15.40;99.90;;;;;;4973154;28;20098;-81
2023/05/16 10:48:11;;;;;;;5.15;1.20;;;15.60;99.90;;;;;;5000158;28;20570;-80
2023/05/16 10:50:42;;;;;;;6.35;1.50;;;16.10;99.90;;;;;;4953048;28;20055;-81
2023/05/16 10:53:18;;;;;;;4.82;1.45;;;16.60;99.90;;;;;;4969660;28;20137;-79
2023/05/16 10:56:10;;;;;;;6.97;1.33;;;16.40;99.90;;;;;;4972743;28;20045;-81
2023/05/16 10:58:42;;;;;;;6.25;1.88;;;15.80;99.90;;;;;;5001076;28;20045;-80
2023/05/16 11:01:45;;;;;;;3.97;1.70;;;16.60;99.90;;;;;;5006312;28;20064;-80
2023/05/16 11:04:44;;;;;;;7.55;1.70;;;16.80;99.90;;;;;;4972666;28;20053;-79
2023/05/16 11:07:10;;;;;;;3.85;1.17;;;17.20;99.90;;;;;;4971163;28;20376;-80
2023/05/16 11:09:44;;;;;;;4.18;1.08;;;17.20;99.90;;;;;;4974796;28;20106;-77
2023/05/16 11:12:25;;;;;;;7.35;1.27;;;16.50;99.90;;;;;;4991141;28;20098;-82
2023/05/16 11:15:00;;;;;;;4.93;1.40;;;16.30;99.90;;;;;;4975092;28;20062;-79
2023/05/16 11:17:30;;;;;;;;;;;16.50;99.90;;;;;;4966735;28;20074;-78
2023/05/16 11:20:00;;;;;;;6.10;1.40;;;16.60;99.90;;;;;;4974759;28;20282;-85
2023/05/16 11:22:28;;;;;;;6.47;1.45;;;16.50;99.90;;;;;;5060268;28;20508;-83
2023/05/16 11:24:57;;;;;;;6.85;1.55;;;16.90;99.90;;;;;;4975097;28;20056;-82
2023/05/16 11:27:30;;;;;;;3.58;1.17;;;17.30;99.90;;;;;;4972681;28;20050;-79
2023/05/16 11:30:05;;;;;;;5.93;1.45;;;17.50;99.90;;;;;;4975064;28;20079;-80
2023/05/16 11:32:33;;;;;;;4.43;1.60;;;18.00;99.90;;;;;;4974819;28;20434;-79
2023/05/16 11:35:02;;;;;;;5.68;1.60;;;17.40;99.90;;;;;;4969727;28;20046;-78
2023/05/16 11:37:28;;;;;;;4.95;1.20;;;17.10;99.90;;;;;;4955424;28;20492;-78
2023/05/16 11:40:08;;;;;;;3.63;1.15;;;17.00;99.90;;;;;;4956456;28;20042;-80
2023/05/16 11:42:40;;;;;;;6.80;1.48;;;17.30;99.90;;;;;;4972233;28;20071;-81
2023/05/16 11:45:23;;;;;;;5.78;1.33;;;17.70;99.90;;;;;;4972458;28;20442;-79
2023/05/16 11:48:02;;;;;;;4.63;1.92;;;17.50;99.90;;;;;;4959250;28;20044;-77
2023/05/16 11:50:29;;;;;;;4.45;1.73;;;17.70;99.90;;;;;;4983845;28;20050;-78
2023/05/16 11:52:56;;;;;;;3.10;1.42;;;17.50;99.90;;;;;;4970962;28;20046;-78
2023/05/16 11:55:25;;;;;;;6.30;1.73;;;17.40;99.90;;;;;;4970721;28;20053;-79
2023/05/16 11:57:52;;;;;;;6.47;1.85;;;17.10;99.90;;;;;;4990167;28;20090;-79
2023/05/16 12:00:25;;;;;;;9.70;2.20;;;17.40;99.90;;;;;;4991096;28;20508;-79
2023/05/16 12:02:53;;;;;;;6.28;1.60;;;17.70;99.90;;;;;;4991321;28;20112;-79
2023/05/16 12:05:24;;;;;;;5.65;1.60;;;17.10;99.90;;;;;;4975247;28;20112;-79
2023/05/16 12:07:50;;;;;;;6.45;1.65;;;16.90;99.90;;;;;;4969188;28;20049;-79
2023/05/16 12:10:16;;;;;;;8.38;2.25;;;17.10;99.90;;;;;;5005477;28;20033;-79
2023/05/16 12:12:45;;;;;;;6.10;1.55;;;17.00;99.90;;;;;;4958212;28;20536;-79
2023/05/16 12:15:12;;;;;;;7.60;2.20;;;17.10;99.90;;;;;;5007172;28;20498;-80
2023/05/16 12:17:39;;;;;;;7.18;2.22;;;16.70;99.90;;;;;;4990771;28;20449;-78
2023/05/16 12:20:06;;;;;;;6.57;1.85;;;16.50;99.90;;;;;;5000659;28;20089;-77
2023/05/16 12:22:34;;;;;;;8.30;2.33;;;16.50;99.90;;;;;;4990190;28;20045;-77
2023/05/16 12:25:20;;;;;;;7.03;2.10;;;16.70;99.90;;;;;;4968049;28;20554;-77
2023/05/16 12:27:46;;;;;;;5.53;1.92;;;17.50;99.90;;;;;;4954278;28;20475;-77
2023/05/16 12:30:12;;;;;;;11.00;2.53;;;17.00;99.90;;;;;;4966042;28;20090;-78
2023/05/16 12:32:38;;;;;;;6.85;2.17;;;16.70;99.90;;;;;;4973734;28;20037;-78
2023/05/16 12:35:04;;;;;;;5.53;2.10;;;16.60;99.90;;;;;;5049984;28;20041;-78
2023/05/16 12:37:29;;;;;;;9.10;2.50;;;16.70;99.90;;;;;;4957955;28;20041;-78
2023/05/16 12:40:03;;;;;;;8.40;2.58;;;16.80;99.90;;;;;;4956440;28;20981;-79
2023/05/16 12:42:30;;;;;;;11.35;3.25;;;17.00;99.90;;;;;;4962532;28;20076;-78
2023/05/16 12:44:57;;;;;;;7.22;2.33;;;16.90;99.90;;;;;;4973560;28;20046;-79
2023/05/16 12:47:23;;;;;;;7.68;3.08;;;16.50;99.90;;;;;;4973858;28;20088;-78
2023/05/16 12:49:50;;;;;;;6.63;2.33;;;17.00;99.90;;;;;;4958203;28;20550;-78